sensor_id;sensor_type;location;lat;lon;timestamp;temperature;humidity
20057;DHT22;10189;49.546;7.906;2023-07-31T00:00:34;16.40;70.50
20057;DHT22;10189;49.546;7.906;2023-07-31T00:03:00;16.40;70.40
20057;DHT22;10189;49.546;7.906;2023-07-31T00:05:26;16.40;70.50
20057;DHT22;10189;49.546;7.906;2023-07-31T00:07:51;16.30;70.60
20057;DHT22;10189;49.546;7.906;2023-07-31T00:10:19;16.30;70.50
20057;DHT22;10189;49.546;7.906;2023-07-31T00:12:45;16.40;70.90
20057;DHT22;10189;49.546;7.906;2023-07-31T00:15:13;16.30;70.90
20057;DHT22;10189;49.546;7.906;2023-07-31T00:17:40;16.40;70.60
20057;DHT22;10189;49.546;7.906;2023-07-31T00:20:06;16.30;71.20
20057;DHT22;10189;49.546;7.906;2023-07-31T00:22:33;16.30;71.00
20057;DHT22;10189;49.546;7.906;2023-07-31T00:24:58;16.30;70.80
20057;DHT22;10189;49.546;7.906;2023-07-31T00:27:25;16.30;71.50
20057;DHT22;10189;49.546;7.906;2023-07-31T00:29:51;16.30;71.00
20057;DHT22;10189;49.546;7.906;2023-07-31T00:32:17;16.20;71.00
20057;DHT22;10189;49.546;7.906;2023-07-31T00:34:43;16.20;71.30
20057;DHT22;10189;49.546;7.906;2023-07-31T00:37:09;16.20;71.30
20057;DHT22;10189;49.546;7.906;2023-07-31T00:39:35;16.20;71.50
20057;DHT22;10189;49.546;7.906;2023-07-31T00:42:01;16.10;71.70
20057;DHT22;10189;49.546;7.906;2023-07-31T00:44:27;16.20;71.50
20057;DHT22;10189;49.546;7.906;2023-07-31T00:46:54;16.20;71.70
20057;DHT22;10189;49.546;7.906;2023-07-31T00:49:22;16.10;72.20
20057;DHT22;10189;49.546;7.906;2023-07-31T00:51:48;16.10;72.20
20057;DHT22;10189;49.546;7.906;2023-07-31T00:54:14;16.00;71.90
20057;DHT22;10189;49.546;7.906;2023-07-31T00:56:41;16.00;71.90
20057;DHT22;10189;49.546;7.906;2023-07-31T00:59:08;16.10;72.10
20057;DHT22;10189;49.546;7.906;2023-07-31T01:01:34;16.10;72.60
20057;DHT22;10189;49.546;7.906;2023-07-31T01:04:00;16.10;71.80
20057;DHT22;10189;49.546;7.906;2023-07-31T01:07:01;16.00;72.60
20057;DHT22;10189;49.546;7.906;2023-07-31T01:09:52;16.00;72.30
20057;DHT22;10189;49.546;7.906;2023-07-31T01:12:27;16.00;72.70
20057;DHT22;10189;49.546;7.906;2023-07-31T01:15:04;16.00;73.40
20057;DHT22;10189;49.546;7.906;2023-07-31T01:17:31;16.00;73.00
20057;DHT22;10189;49.546;7.906;2023-07-31T01:20:02;16.00;73.30
20057;DHT22;10189;49.546;7.906;2023-07-31T01:25:44;16.10;72.60
20057;DHT22;10189;49.546;7.906;2023-07-31T01:28:19;16.10;72.60
20057;DHT22;10189;49.546;7.906;2023-07-31T01:30:49;16.20;72.40
20057;DHT22;10189;49.546;7.906;2023-07-31T01:33:16;16.20;71.80
20057;DHT22;10189;49.546;7.906;2023-07-31T01:35:44;16.20;72.20
20057;DHT22;10189;49.546;7.906;2023-07-31T01:38:12;16.10;72.90
20057;DHT22;10189;49.546;7.906;2023-07-31T01:40:41;16.10;72.50
20057;DHT22;10189;49.546;7.906;2023-07-31T01:43:09;16.00;73.80
20057;DHT22;10189;49.546;7.906;2023-07-31T01:45:34;16.00;73.80
20057;DHT22;10189;49.546;7.906;2023-07-31T01:48:00;15.90;73.80
20057;DHT22;10189;49.546;7.906;2023-07-31T01:50:26;15.80;73.80
20057;DHT22;10189;49.546;7.906;2023-07-31T01:52:52;15.80;74.00
20057;DHT22;10189;49.546;7.906;2023-07-31T01:55:18;15.70;74.40
20057;DHT22;10189;49.546;7.906;2023-07-31T01:57:43;15.60;75.30
20057;DHT22;10189;49.546;7.906;2023-07-31T02:00:10;15.60;75.70
20057;DHT22;10189;49.546;7.906;2023-07-31T02:02:38;15.50;75.80
20057;DHT22;10189;49.546;7.906;2023-07-31T02:05:05;15.50;75.80
20057;DHT22;10189;49.546;7.906;2023-07-31T02:07:31;15.50;75.70
20057;DHT22;10189;49.546;7.906;2023-07-31T02:09:57;15.40;76.40
20057;DHT22;10189;49.546;7.906;2023-07-31T02:12:23;15.40;76.00
20057;DHT22;10189;49.546;7.906;2023-07-31T02:14:48;15.40;76.10
20057;DHT22;10189;49.546;7.906;2023-07-31T02:17:14;15.40;76.50
20057;DHT22;10189;49.546;7.906;2023-07-31T02:19:40;15.40;76.60
20057;DHT22;10189;49.546;7.906;2023-07-31T02:22:06;15.40;76.30
20057;DHT22;10189;49.546;7.906;2023-07-31T02:24:32;15.40;76.70
20057;DHT22;10189;49.546;7.906;2023-07-31T02:26:58;15.30;76.60
20057;DHT22;10189;49.546;7.906;2023-07-31T02:29:25;15.30;77.00
20057;DHT22;10189;49.546;7.906;2023-07-31T02:31:51;15.30;76.90
20057;DHT22;10189;49.546;7.906;2023-07-31T02:34:17;15.40;76.80
20057;DHT22;10189;49.546;7.906;2023-07-31T02:36:42;15.30;77.50
20057;DHT22;10189;49.546;7.906;2023-07-31T02:39:08;15.30;77.20
20057;DHT22;10189;49.546;7.906;2023-07-31T02:41:34;15.20;77.90
20057;DHT22;10189;49.546;7.906;2023-07-31T02:44:01;15.20;77.70
20057;DHT22;10189;49.546;7.906;2023-07-31T02:46:27;15.20;77.50
20057;DHT22;10189;49.546;7.906;2023-07-31T02:48:52;15.10;78.40
20057;DHT22;10189;49.546;7.906;2023-07-31T02:51:19;15.10;78.00
20057;DHT22;10189;49.546;7.906;2023-07-31T02:53:47;15.20;77.60
20057;DHT22;10189;49.546;7.906;2023-07-31T02:56:13;15.10;77.80
20057;DHT22;10189;49.546;7.906;2023-07-31T02:58:39;15.10;78.20
20057;DHT22;10189;49.546;7.906;2023-07-31T03:01:05;15.10;78.80
20057;DHT22;10189;49.546;7.906;2023-07-31T03:03:31;15.10;78.20
20057;DHT22;10189;49.546;7.906;2023-07-31T03:05:57;15.00;78.40
20057;DHT22;10189;49.546;7.906;2023-07-31T03:08:23;15.00;79.50
20057;DHT22;10189;49.546;7.906;2023-07-31T03:10:49;15.00;79.10
20057;DHT22;10189;49.546;7.906;2023-07-31T03:13:15;15.00;79.20
20057;DHT22;10189;49.546;7.906;2023-07-31T03:15:44;15.00;78.40
20057;DHT22;10189;49.546;7.906;2023-07-31T03:18:10;15.00;78.90
20057;DHT22;10189;49.546;7.906;2023-07-31T03:20:35;15.00;78.80
20057;DHT22;10189;49.546;7.906;2023-07-31T03:23:01;15.00;78.70
20057;DHT22;10189;49.546;7.906;2023-07-31T03:25:27;15.00;78.80
20057;DHT22;10189;49.546;7.906;2023-07-31T03:27:53;15.10;78.50
20057;DHT22;10189;49.546;7.906;2023-07-31T03:30:19;15.10;78.70
20057;DHT22;10189;49.546;7.906;2023-07-31T03:32:45;15.10;78.70
20057;DHT22;10189;49.546;7.906;2023-07-31T03:35:11;15.00;78.50
20057;DHT22;10189;49.546;7.906;2023-07-31T03:37:37;15.10;78.80
20057;DHT22;10189;49.546;7.906;2023-07-31T03:40:03;15.00;78.70
20057;DHT22;10189;49.546;7.906;2023-07-31T03:42:30;15.00;78.70
20057;DHT22;10189;49.546;7.906;2023-07-31T03:44:56;15.00;78.80
20057;DHT22;10189;49.546;7.906;2023-07-31T03:47:22;15.00;78.80
20057;DHT22;10189;49.546;7.906;2023-07-31T03:49:48;15.00;78.70
20057;DHT22;10189;49.546;7.906;2023-07-31T03:52:14;14.90;78.90
20057;DHT22;10189;49.546;7.906;2023-07-31T03:54:40;14.90;78.80
20057;DHT22;10189;49.546;7.906;2023-07-31T03:57:06;14.80;79.20
20057;DHT22;10189;49.546;7.906;2023-07-31T03:59:32;14.80;79.40
20057;DHT22;10189;49.546;7.906;2023-07-31T04:01:57;14.80;79.30
20057;DHT22;10189;49.546;7.906;2023-07-31T04:04:23;14.80;79.90
20057;DHT22;10189;49.546;7.906;2023-07-31T04:06:49;14.80;80.00
20057;DHT22;10189;49.546;7.906;2023-07-31T04:09:15;14.70;80.10
20057;DHT22;10189;49.546;7.906;2023-07-31T04:11:41;14.70;80.20
20057;DHT22;10189;49.546;7.906;2023-07-31T04:14:06;14.70;80.20
20057;DHT22;10189;49.546;7.906;2023-07-31T04:16:32;14.70;80.60
20057;DHT22;10189;49.546;7.906;2023-07-31T04:18:58;14.70;80.20
20057;DHT22;10189;49.546;7.906;2023-07-31T04:21:24;14.70;80.40
20057;DHT22;10189;49.546;7.906;2023-07-31T04:23:50;14.70;80.20
20057;DHT22;10189;49.546;7.906;2023-07-31T04:26:16;14.70;80.30
20057;DHT22;10189;49.546;7.906;2023-07-31T04:28:42;14.70;79.90
20057;DHT22;10189;49.546;7.906;2023-07-31T04:31:07;14.80;80.10
20057;DHT22;10189;49.546;7.906;2023-07-31T04:33:34;14.80;80.10
20057;DHT22;10189;49.546;7.906;2023-07-31T04:36:00;14.80;80.20
20057;DHT22;10189;49.546;7.906;2023-07-31T04:38:27;14.70;80.60
20057;DHT22;10189;49.546;7.906;2023-07-31T04:40:53;14.80;80.60
20057;DHT22;10189;49.546;7.906;2023-07-31T04:43:18;14.80;80.80
20057;DHT22;10189;49.546;7.906;2023-07-31T04:45:47;14.80;80.10
20057;DHT22;10189;49.546;7.906;2023-07-31T04:48:15;14.80;80.30
20057;DHT22;10189;49.546;7.906;2023-07-31T04:50:41;14.90;80.60
20057;DHT22;10189;49.546;7.906;2023-07-31T04:53:07;14.90;80.60
20057;DHT22;10189;49.546;7.906;2023-07-31T04:55:33;15.00;80.20
20057;DHT22;10189;49.546;7.906;2023-07-31T04:57:59;15.00;80.20
20057;DHT22;10189;49.546;7.906;2023-07-31T05:00:25;15.00;79.90
20057;DHT22;10189;49.546;7.906;2023-07-31T05:02:51;15.00;80.20
20057;DHT22;10189;49.546;7.906;2023-07-31T05:05:17;15.00;80.60
20057;DHT22;10189;49.546;7.906;2023-07-31T05:07:42;15.00;80.10
20057;DHT22;10189;49.546;7.906;2023-07-31T05:10:09;15.10;80.10
20057;DHT22;10189;49.546;7.906;2023-07-31T05:12:34;15.10;79.40
20057;DHT22;10189;49.546;7.906;2023-07-31T05:15:00;15.20;79.60
20057;DHT22;10189;49.546;7.906;2023-07-31T05:17:26;15.40;79.00
20057;DHT22;10189;49.546;7.906;2023-07-31T05:19:52;15.50;78.70
20057;DHT22;10189;49.546;7.906;2023-07-31T05:22:18;15.70;77.70
20057;DHT22;10189;49.546;7.906;2023-07-31T05:24:43;15.80;77.70
20057;DHT22;10189;49.546;7.906;2023-07-31T05:27:09;15.90;77.20
20057;DHT22;10189;49.546;7.906;2023-07-31T05:29:36;16.10;75.90
20057;DHT22;10189;49.546;7.906;2023-07-31T05:32:01;16.20;75.30
20057;DHT22;10189;49.546;7.906;2023-07-31T05:34:27;16.30;75.70
20057;DHT22;10189;49.546;7.906;2023-07-31T05:36:53;16.40;75.00
20057;DHT22;10189;49.546;7.906;2023-07-31T05:39:19;16.50;74.70
20057;DHT22;10189;49.546;7.906;2023-07-31T05:41:45;16.50;75.00
20057;DHT22;10189;49.546;7.906;2023-07-31T05:44:11;16.50;75.40
20057;DHT22;10189;49.546;7.906;2023-07-31T05:46:37;16.40;74.60
20057;DHT22;10189;49.546;7.906;2023-07-31T05:49:02;16.40;75.30
20057;DHT22;10189;49.546;7.906;2023-07-31T05:51:28;16.40;75.40
20057;DHT22;10189;49.546;7.906;2023-07-31T05:53:54;16.50;75.30
20057;DHT22;10189;49.546;7.906;2023-07-31T05:56:20;16.60;75.60
20057;DHT22;10189;49.546;7.906;2023-07-31T05:58:46;16.60;75.50
20057;DHT22;10189;49.546;7.906;2023-07-31T06:01:12;16.60;75.50
20057;DHT22;10189;49.546;7.906;2023-07-31T06:03:38;16.50;75.40
20057;DHT22;10189;49.546;7.906;2023-07-31T06:06:04;16.60;74.70
20057;DHT22;10189;49.546;7.906;2023-07-31T06:08:30;16.70;76.00
20057;DHT22;10189;49.546;7.906;2023-07-31T06:10:56;16.80;75.60
20057;DHT22;10189;49.546;7.906;2023-07-31T06:13:22;16.90;74.00
20057;DHT22;10189;49.546;7.906;2023-07-31T06:15:48;17.00;74.10
20057;DHT22;10189;49.546;7.906;2023-07-31T06:18:14;17.00;74.10
20057;DHT22;10189;49.546;7.906;2023-07-31T06:20:40;16.80;74.90
20057;DHT22;10189;49.546;7.906;2023-07-31T06:23:06;16.80;75.00
20057;DHT22;10189;49.546;7.906;2023-07-31T06:25:32;16.80;74.20
20057;DHT22;10189;49.546;7.906;2023-07-31T06:27:58;16.80;74.70
20057;DHT22;10189;49.546;7.906;2023-07-31T06:30:23;16.80;75.10
20057;DHT22;10189;49.546;7.906;2023-07-31T06:32:49;16.90;76.20
20057;DHT22;10189;49.546;7.906;2023-07-31T06:35:15;16.90;74.30
20057;DHT22;10189;49.546;7.906;2023-07-31T06:37:41;16.90;75.40
20057;DHT22;10189;49.546;7.906;2023-07-31T06:40:09;16.80;74.60
20057;DHT22;10189;49.546;7.906;2023-07-31T06:42:35;16.80;75.40
20057;DHT22;10189;49.546;7.906;2023-07-31T06:45:02;16.80;75.80
20057;DHT22;10189;49.546;7.906;2023-07-31T06:47:28;17.10;76.30
20057;DHT22;10189;49.546;7.906;2023-07-31T06:49:55;17.40;75.60
20057;DHT22;10189;49.546;7.906;2023-07-31T06:52:21;17.70;73.50
20057;DHT22;10189;49.546;7.906;2023-07-31T06:55:01;18.00;74.20
20057;DHT22;10189;49.546;7.906;2023-07-31T06:57:29;18.10;71.40
20057;DHT22;10189;49.546;7.906;2023-07-31T06:59:55;18.00;72.00
20057;DHT22;10189;49.546;7.906;2023-07-31T07:02:21;17.80;71.60
20057;DHT22;10189;49.546;7.906;2023-07-31T07:04:47;17.80;72.60
20057;DHT22;10189;49.546;7.906;2023-07-31T07:07:12;17.90;72.90
20057;DHT22;10189;49.546;7.906;2023-07-31T07:09:38;17.90;72.70
20057;DHT22;10189;49.546;7.906;2023-07-31T07:12:04;18.10;72.70
20057;DHT22;10189;49.546;7.906;2023-07-31T07:14:30;18.40;71.70
20057;DHT22;10189;49.546;7.906;2023-07-31T07:16:56;18.40;72.50
20057;DHT22;10189;49.546;7.906;2023-07-31T07:19:22;18.40;71.10
20057;DHT22;10189;49.546;7.906;2023-07-31T07:21:48;18.40;72.10
20057;DHT22;10189;49.546;7.906;2023-07-31T07:24:13;18.50;71.70
20057;DHT22;10189;49.546;7.906;2023-07-31T07:26:39;18.80;71.60
20057;DHT22;10189;49.546;7.906;2023-07-31T07:29:05;19.00;70.30
20057;DHT22;10189;49.546;7.906;2023-07-31T07:31:33;19.50;70.40
20057;DHT22;10189;49.546;7.906;2023-07-31T07:33:59;19.70;68.10
20057;DHT22;10189;49.546;7.906;2023-07-31T07:36:25;19.70;67.80
20057;DHT22;10189;49.546;7.906;2023-07-31T07:38:53;19.90;67.70
20057;DHT22;10189;49.546;7.906;2023-07-31T07:41:19;20.00;67.30
20057;DHT22;10189;49.546;7.906;2023-07-31T07:43:44;19.90;67.20
20057;DHT22;10189;49.546;7.906;2023-07-31T07:46:10;19.90;67.60
20057;DHT22;10189;49.546;7.906;2023-07-31T07:48:37;19.90;66.70
20057;DHT22;10189;49.546;7.906;2023-07-31T07:51:02;19.80;68.20
20057;DHT22;10189;49.546;7.906;2023-07-31T07:53:28;19.90;68.30
20057;DHT22;10189;49.546;7.906;2023-07-31T07:55:54;19.90;67.00
20057;DHT22;10189;49.546;7.906;2023-07-31T07:58:20;19.90;66.80
20057;DHT22;10189;49.546;7.906;2023-07-31T08:00:52;19.70;67.90
20057;DHT22;10189;49.546;7.906;2023-07-31T08:03:18;19.50;68.60
20057;DHT22;10189;49.546;7.906;2023-07-31T08:05:44;19.20;68.80
20057;DHT22;10189;49.546;7.906;2023-07-31T08:08:14;19.30;69.40
20057;DHT22;10189;49.546;7.906;2023-07-31T08:10:43;19.40;68.20
20057;DHT22;10189;49.546;7.906;2023-07-31T08:13:11;19.50;68.60
20057;DHT22;10189;49.546;7.906;2023-07-31T08:15:37;19.60;68.20
20057;DHT22;10189;49.546;7.906;2023-07-31T08:18:03;19.80;66.90
20057;DHT22;10189;49.546;7.906;2023-07-31T08:20:29;20.20;68.20
20057;DHT22;10189;49.546;7.906;2023-07-31T08:22:54;20.60;66.00
20057;DHT22;10189;49.546;7.906;2023-07-31T08:25:20;21.10;65.70
20057;DHT22;10189;49.546;7.906;2023-07-31T08:27:46;21.10;63.20
20057;DHT22;10189;49.546;7.906;2023-07-31T08:30:12;21.10;63.50
20057;DHT22;10189;49.546;7.906;2023-07-31T08:32:38;21.40;62.90
20057;DHT22;10189;49.546;7.906;2023-07-31T08:35:04;21.60;63.60
20057;DHT22;10189;49.546;7.906;2023-07-31T08:37:30;21.40;63.50
20057;DHT22;10189;49.546;7.906;2023-07-31T08:39:55;21.30;62.00
20057;DHT22;10189;49.546;7.906;2023-07-31T08:42:21;21.10;62.00
20057;DHT22;10189;49.546;7.906;2023-07-31T08:44:47;21.10;62.50
20057;DHT22;10189;49.546;7.906;2023-07-31T08:47:16;21.20;63.60
20057;DHT22;10189;49.546;7.906;2023-07-31T08:49:42;21.20;60.90
20057;DHT22;10189;49.546;7.906;2023-07-31T08:52:10;21.30;62.20
20057;DHT22;10189;49.546;7.906;2023-07-31T08:54:36;21.30;63.20
20057;DHT22;10189;49.546;7.906;2023-07-31T08:57:02;21.50;63.00
20057;DHT22;10189;49.546;7.906;2023-07-31T08:59:31;21.90;61.30
20057;DHT22;10189;49.546;7.906;2023-07-31T09:02:03;22.00;61.20
20057;DHT22;10189;49.546;7.906;2023-07-31T09:04:32;22.10;58.70
20057;DHT22;10189;49.546;7.906;2023-07-31T09:07:01;22.00;61.30
20057;DHT22;10189;49.546;7.906;2023-07-31T09:09:30;22.20;61.60
20057;DHT22;10189;49.546;7.906;2023-07-31T09:11:59;22.20;62.70
20057;DHT22;10189;49.546;7.906;2023-07-31T09:14:25;22.40;60.80
20057;DHT22;10189;49.546;7.906;2023-07-31T09:16:56;22.50;60.00
20057;DHT22;10189;49.546;7.906;2023-07-31T09:19:31;22.60;59.40
20057;DHT22;10189;49.546;7.906;2023-07-31T09:22:00;22.50;58.10
20057;DHT22;10189;49.546;7.906;2023-07-31T09:24:27;22.60;59.70
20057;DHT22;10189;49.546;7.906;2023-07-31T09:26:56;22.70;57.10
20057;DHT22;10189;49.546;7.906;2023-07-31T09:29:24;22.20;59.50
20057;DHT22;10189;49.546;7.906;2023-07-31T09:31:52;22.00;58.60
20057;DHT22;10189;49.546;7.906;2023-07-31T09:34:19;21.80;61.40
20057;DHT22;10189;49.546;7.906;2023-07-31T09:36:50;22.10;61.80
20057;DHT22;10189;49.546;7.906;2023-07-31T09:39:20;22.40;60.40
20057;DHT22;10189;49.546;7.906;2023-07-31T09:41:53;22.30;59.40
20057;DHT22;10189;49.546;7.906;2023-07-31T09:44:20;22.10;60.40
20057;DHT22;10189;49.546;7.906;2023-07-31T09:46:46;22.20;61.00
20057;DHT22;10189;49.546;7.906;2023-07-31T09:49:14;22.20;59.30
20057;DHT22;10189;49.546;7.906;2023-07-31T09:51:41;22.10;59.30
20057;DHT22;10189;49.546;7.906;2023-07-31T09:54:16;21.90;60.90
20057;DHT22;10189;49.546;7.906;2023-07-31T09:56:47;21.80;60.40
20057;DHT22;10189;49.546;7.906;2023-07-31T09:59:20;21.80;60.50
20057;DHT22;10189;49.546;7.906;2023-07-31T10:01:46;22.30;61.20
20057;DHT22;10189;49.546;7.906;2023-07-31T10:04:14;22.50;58.40
20057;DHT22;10189;49.546;7.906;2023-07-31T10:06:43;22.60;57.30
20057;DHT22;10189;49.546;7.906;2023-07-31T10:09:12;22.40;57.30
20057;DHT22;10189;49.546;7.906;2023-07-31T10:11:47;22.30;58.20
20057;DHT22;10189;49.546;7.906;2023-07-31T10:14:22;22.30;58.50
20057;DHT22;10189;49.546;7.906;2023-07-31T10:16:50;22.40;57.40
20057;DHT22;10189;49.546;7.906;2023-07-31T10:19:18;22.20;58.30
20057;DHT22;10189;49.546;7.906;2023-07-31T10:21:46;22.20;58.50
20057;DHT22;10189;49.546;7.906;2023-07-31T10:24:14;22.20;59.80
20057;DHT22;10189;49.546;7.906;2023-07-31T10:26:45;22.00;59.80
20057;DHT22;10189;49.546;7.906;2023-07-31T10:29:15;21.80;59.40
20057;DHT22;10189;49.546;7.906;2023-07-31T10:31:43;21.90;61.00
20057;DHT22;10189;49.546;7.906;2023-07-31T10:34:10;22.00;61.20
20057;DHT22;10189;49.546;7.906;2023-07-31T10:36:36;22.20;60.90
20057;DHT22;10189;49.546;7.906;2023-07-31T10:39:04;22.40;59.20
20057;DHT22;10189;49.546;7.906;2023-07-31T10:41:30;22.50;60.70
20057;DHT22;10189;49.546;7.906;2023-07-31T10:44:00;22.50;59.90
20057;DHT22;10189;49.546;7.906;2023-07-31T10:46:28;22.60;59.10
20057;DHT22;10189;49.546;7.906;2023-07-31T10:49:02;22.50;59.70
20057;DHT22;10189;49.546;7.906;2023-07-31T10:51:35;22.70;60.80
20057;DHT22;10189;49.546;7.906;2023-07-31T10:54:15;23.00;60.20
20057;DHT22;10189;49.546;7.906;2023-07-31T10:56:50;23.30;58.60
20057;DHT22;10189;49.546;7.906;2023-07-31T10:59:16;23.00;58.20
20057;DHT22;10189;49.546;7.906;2023-07-31T11:01:58;22.70;57.80
20057;DHT22;10189;49.546;7.906;2023-07-31T11:04:27;22.50;59.50
20057;DHT22;10189;49.546;7.906;2023-07-31T11:07:01;22.80;59.50
20057;DHT22;10189;49.546;7.906;2023-07-31T11:09:32;22.80;58.20
20057;DHT22;10189;49.546;7.906;2023-07-31T11:11:59;23.00;57.70
20057;DHT22;10189;49.546;7.906;2023-07-31T11:14:25;23.10;60.20
20057;DHT22;10189;49.546;7.906;2023-07-31T11:16:51;23.10;58.80
20057;DHT22;10189;49.546;7.906;2023-07-31T11:19:25;23.10;58.10
20057;DHT22;10189;49.546;7.906;2023-07-31T11:21:52;23.00;59.00
20057;DHT22;10189;49.546;7.906;2023-07-31T11:24:21;23.00;57.30
20057;DHT22;10189;49.546;7.906;2023-07-31T11:26:53;23.00;58.50
20057;DHT22;10189;49.546;7.906;2023-07-31T11:29:20;23.00;57.20
20057;DHT22;10189;49.546;7.906;2023-07-31T11:31:47;23.10;57.50
20057;DHT22;10189;49.546;7.906;2023-07-31T11:34:14;23.00;59.30
20057;DHT22;10189;49.546;7.906;2023-07-31T11:36:40;23.10;58.30
20057;DHT22;10189;49.546;7.906;2023-07-31T11:39:10;23.10;58.60
20057;DHT22;10189;49.546;7.906;2023-07-31T11:41:39;23.00;57.30
20057;DHT22;10189;49.546;7.906;2023-07-31T11:44:06;23.00;57.90
20057;DHT22;10189;49.546;7.906;2023-07-31T11:46:32;22.80;57.80
20057;DHT22;10189;49.546;7.906;2023-07-31T11:49:01;22.60;58.60
20057;DHT22;10189;49.546;7.906;2023-07-31T11:51:28;22.60;59.20
20057;DHT22;10189;49.546;7.906;2023-07-31T11:53:58;22.60;57.40
20057;DHT22;10189;49.546;7.906;2023-07-31T11:56:27;22.50;58.20
20057;DHT22;10189;49.546;7.906;2023-07-31T11:58:58;22.70;57.40
20057;DHT22;10189;49.546;7.906;2023-07-31T12:01:26;22.80;56.90
20057;DHT22;10189;49.546;7.906;2023-07-31T12:03:53;22.70;56.70
20057;DHT22;10189;49.546;7.906;2023-07-31T12:06:20;22.60;57.00
20057;DHT22;10189;49.546;7.906;2023-07-31T12:08:47;22.70;57.20
20057;DHT22;10189;49.546;7.906;2023-07-31T12:11:14;22.90;57.10
20057;DHT22;10189;49.546;7.906;2023-07-31T12:13:40;23.20;57.30
20057;DHT22;10189;49.546;7.906;2023-07-31T12:16:06;23.30;56.00
20057;DHT22;10189;49.546;7.906;2023-07-31T12:18:37;23.40;56.20
20057;DHT22;10189;49.546;7.906;2023-07-31T12:21:09;23.50;57.40
20057;DHT22;10189;49.546;7.906;2023-07-31T12:23:37;23.40;56.90
20057;DHT22;10189;49.546;7.906;2023-07-31T12:26:14;23.50;57.40
20057;DHT22;10189;49.546;7.906;2023-07-31T12:28:45;23.70;55.60
20057;DHT22;10189;49.546;7.906;2023-07-31T12:33:46;23.90;57.20
20057;DHT22;10189;49.546;7.906;2023-07-31T12:36:18;24.00;58.90
20057;DHT22;10189;49.546;7.906;2023-07-31T12:38:49;24.00;54.80
20057;DHT22;10189;49.546;7.906;2023-07-31T12:41:16;24.00;56.60
20057;DHT22;10189;49.546;7.906;2023-07-31T12:43:44;24.10;56.70
20057;DHT22;10189;49.546;7.906;2023-07-31T12:46:11;24.30;56.10
20057;DHT22;10189;49.546;7.906;2023-07-31T12:48:38;24.10;56.10
20057;DHT22;10189;49.546;7.906;2023-07-31T12:51:04;24.10;57.30
20057;DHT22;10189;49.546;7.906;2023-07-31T12:53:32;23.90;56.80
20057;DHT22;10189;49.546;7.906;2023-07-31T12:55:58;23.90;57.50
20057;DHT22;10189;49.546;7.906;2023-07-31T12:58:24;23.50;56.80
20057;DHT22;10189;49.546;7.906;2023-07-31T13:00:51;23.10;57.60
20057;DHT22;10189;49.546;7.906;2023-07-31T13:03:16;22.90;58.10
20057;DHT22;10189;49.546;7.906;2023-07-31T13:05:42;22.90;58.30
20057;DHT22;10189;49.546;7.906;2023-07-31T13:08:08;22.60;58.80
20057;DHT22;10189;49.546;7.906;2023-07-31T13:10:34;22.50;59.20
20057;DHT22;10189;49.546;7.906;2023-07-31T13:13:00;22.40;58.60
20057;DHT22;10189;49.546;7.906;2023-07-31T13:15:26;22.10;59.50
20057;DHT22;10189;49.546;7.906;2023-07-31T13:17:52;22.00;61.10
20057;DHT22;10189;49.546;7.906;2023-07-31T13:20:18;21.80;60.70
20057;DHT22;10189;49.546;7.906;2023-07-31T13:22:43;21.70;61.50
20057;DHT22;10189;49.546;7.906;2023-07-31T13:25:10;21.70;61.00
20057;DHT22;10189;49.546;7.906;2023-07-31T13:27:36;21.80;60.60
20057;DHT22;10189;49.546;7.906;2023-07-31T13:30:02;21.90;60.90
20057;DHT22;10189;49.546;7.906;2023-07-31T13:32:29;22.00;60.60
20057;DHT22;10189;49.546;7.906;2023-07-31T13:34:56;21.80;61.30
20057;DHT22;10189;49.546;7.906;2023-07-31T13:37:22;21.80;60.90
20057;DHT22;10189;49.546;7.906;2023-07-31T13:39:48;21.90;61.60
20057;DHT22;10189;49.546;7.906;2023-07-31T13:42:14;22.00;62.00
20057;DHT22;10189;49.546;7.906;2023-07-31T13:44:41;22.20;60.60
20057;DHT22;10189;49.546;7.906;2023-07-31T13:47:08;22.20;61.70
20057;DHT22;10189;49.546;7.906;2023-07-31T13:49:35;22.00;61.10
20057;DHT22;10189;49.546;7.906;2023-07-31T13:52:04;22.00;62.80
20057;DHT22;10189;49.546;7.906;2023-07-31T13:54:31;22.10;61.80
20057;DHT22;10189;49.546;7.906;2023-07-31T13:56:57;22.10;62.70
20057;DHT22;10189;49.546;7.906;2023-07-31T13:59:23;22.00;61.80
20057;DHT22;10189;49.546;7.906;2023-07-31T14:01:50;21.80;61.60
20057;DHT22;10189;49.546;7.906;2023-07-31T14:04:16;21.60;61.70
20057;DHT22;10189;49.546;7.906;2023-07-31T14:06:45;21.50;63.00
20057;DHT22;10189;49.546;7.906;2023-07-31T14:09:13;21.40;64.10
20057;DHT22;10189;49.546;7.906;2023-07-31T14:11:40;21.30;63.20
20057;DHT22;10189;49.546;7.906;2023-07-31T14:14:06;21.10;63.30
20057;DHT22;10189;49.546;7.906;2023-07-31T14:16:32;21.20;64.40
20057;DHT22;10189;49.546;7.906;2023-07-31T14:18:58;21.30;63.10
20057;DHT22;10189;49.546;7.906;2023-07-31T14:21:25;21.10;64.50
20057;DHT22;10189;49.546;7.906;2023-07-31T14:23:51;21.10;63.10
20057;DHT22;10189;49.546;7.906;2023-07-31T14:26:17;21.10;64.00
20057;DHT22;10189;49.546;7.906;2023-07-31T14:28:44;21.20;63.70
20057;DHT22;10189;49.546;7.906;2023-07-31T14:31:10;21.30;64.40
20057;DHT22;10189;49.546;7.906;2023-07-31T14:33:36;21.50;63.70
20057;DHT22;10189;49.546;7.906;2023-07-31T14:36:02;21.60;63.10
20057;DHT22;10189;49.546;7.906;2023-07-31T14:38:28;21.80;63.70
20057;DHT22;10189;49.546;7.906;2023-07-31T14:40:54;21.90;61.90
20057;DHT22;10189;49.546;7.906;2023-07-31T14:43:20;22.00;61.80
20057;DHT22;10189;49.546;7.906;2023-07-31T14:45:45;22.00;61.40
20057;DHT22;10189;49.546;7.906;2023-07-31T14:48:15;21.80;62.20
20057;DHT22;10189;49.546;7.906;2023-07-31T14:50:41;21.80;63.80
20057;DHT22;10189;49.546;7.906;2023-07-31T14:53:06;21.90;63.50
20057;DHT22;10189;49.546;7.906;2023-07-31T14:55:32;22.00;62.00
20057;DHT22;10189;49.546;7.906;2023-07-31T14:57:58;22.00;62.10
20057;DHT22;10189;49.546;7.906;2023-07-31T15:00:24;22.20;62.30
20057;DHT22;10189;49.546;7.906;2023-07-31T15:02:50;22.20;61.30
20057;DHT22;10189;49.546;7.906;2023-07-31T15:05:16;22.00;62.30
20057;DHT22;10189;49.546;7.906;2023-07-31T15:07:42;21.80;61.30
20057;DHT22;10189;49.546;7.906;2023-07-31T15:10:08;21.60;63.40
20057;DHT22;10189;49.546;7.906;2023-07-31T15:12:34;21.50;64.50
20057;DHT22;10189;49.546;7.906;2023-07-31T15:14:59;21.70;64.30
20057;DHT22;10189;49.546;7.906;2023-07-31T15:17:25;21.60;62.90
20057;DHT22;10189;49.546;7.906;2023-07-31T15:19:51;21.50;63.30
20057;DHT22;10189;49.546;7.906;2023-07-31T15:22:17;21.60;64.30
20057;DHT22;10189;49.546;7.906;2023-07-31T15:24:43;21.70;63.90
20057;DHT22;10189;49.546;7.906;2023-07-31T15:27:09;21.60;63.30
20057;DHT22;10189;49.546;7.906;2023-07-31T15:29:35;21.60;63.30
20057;DHT22;10189;49.546;7.906;2023-07-31T15:32:04;21.50;64.70
20057;DHT22;10189;49.546;7.906;2023-07-31T15:34:30;21.50;64.40